Search for airport 
image banner adimage banner adimage banner ad
image banner ad

67PN - Masser Field

Located in Sacramento, United States

ICAO - 67PN, IATA -

Data provided by Airmate  

General information

Coordinates: N40°38'0" W76°35'49"
Elevation is 720 feet MSL.
Magnetic variation is -11° East
View others Airports in Pennsylvania

Operational data

Special qualification required
Current time UTC:
Current local time:
METAR: KMUI 091156Z AUTO 26003KT 10SM OVC130 07/06 A3011 RMK AO2 SLP201 70014 T00690057 10076 20029 52005
View NOTAMs / SUP AIP / TFR affecting this airport [VIEW]
Communications frequencies: [VIEW]

Runways:

RWY identifierQFULength (ft)Width (ft)SurfaceLDA (ft)
10210075GRASS
28210075GRASS

Airport contact information

Address: Sacramento United States

Satellite view of 67PN